Time;durP1;ratioP1;P1;durP2;ratioP2;P2;SDS_P1;SDS_P2;PMS_P1;PMS_P2;Temp;Humidity;BMP_temperature;BMP_pressure;BME280_temperature;BME280_humidity;BME280_pressure;Samples;Min_cycle;Max_cycle;Signal;HPM_P1;HPM_P2
2023/06/09 00:02:20;;;;;;;18.42;5.75;;;11.90;99.90;;;;;;5027028;28;20447;-82
2023/06/09 00:04:46;;;;;;;14.52;4.97;;;11.90;99.90;;;;;;5030018;28;20041;-82
2023/06/09 00:07:15;;;;;;;11.55;5.55;;;11.90;99.90;;;;;;5026707;28;20041;-82
2023/06/09 00:09:42;;;;;;;12.38;5.90;;;11.90;99.90;;;;;;5043948;28;20056;-82
2023/06/09 00:12:07;;;;;;;14.73;6.38;;;11.90;99.90;;;;;;5027245;28;20041;-83
2023/06/09 00:14:33;;;;;;;19.30;6.03;;;11.90;99.90;;;;;;5025722;28;20037;-82
2023/06/09 00:16:59;;;;;;;20.25;6.75;;;12.00;99.90;;;;;;5025614;28;20133;-82
2023/06/09 00:19:27;;;;;;;20.05;7.03;;;12.00;99.90;;;;;;5026720;28;20088;-82
2023/06/09 00:21:53;;;;;;;17.10;6.40;;;12.00;99.90;;;;;;5013310;28;20049;-82
2023/06/09 00:24:21;;;;;;;18.38;7.40;;;12.10;99.90;;;;;;5027422;28;20041;-83
2023/06/09 00:26:51;;;;;;;13.25;6.40;;;12.10;99.90;;;;;;5009320;28;20116;-82
2023/06/09 00:29:18;;;;;;;15.52;6.93;;;12.10;99.90;;;;;;5027503;28;20048;-82
2023/06/09 00:31:44;;;;;;;19.23;7.22;;;12.10;99.90;;;;;;5025638;28;20504;-82
2023/06/09 00:34:10;;;;;;;17.35;7.13;;;12.10;99.90;;;;;;5028051;28;20040;-82
2023/06/09 00:36:36;;;;;;;20.23;7.65;;;12.10;99.90;;;;;;5010647;28;20711;-83
2023/06/09 00:39:03;;;;;;;17.65;6.78;;;12.10;99.90;;;;;;5026331;28;20137;-82
2023/06/09 00:41:29;;;;;;;16.08;7.05;;;12.10;99.90;;;;;;5029256;28;20046;-82
2023/06/09 00:43:55;;;;;;;17.38;5.95;;;12.10;99.90;;;;;;5029889;28;20045;-83
2023/06/09 00:46:21;;;;;;;15.48;6.55;;;12.10;99.90;;;;;;5027947;28;20053;-83
2023/06/09 00:48:47;;;;;;;17.48;6.93;;;12.10;99.90;;;;;;5024015;28;20043;-82
2023/06/09 00:51:13;;;;;;;13.90;6.20;;;12.10;99.90;;;;;;5026726;28;20038;-82
2023/06/09 00:53:38;;;;;;;16.60;7.00;;;12.10;99.90;;;;;;5028912;28;20029;-82
2023/06/09 00:56:05;;;;;;;20.77;7.53;;;12.10;99.90;;;;;;5028011;28;20504;-83
2023/06/09 00:58:32;;;;;;;16.75;7.40;;;12.20;99.90;;;;;;5026365;28;20049;-82
2023/06/09 01:00:58;;;;;;;17.98;7.43;;;12.10;99.90;;;;;;5027467;28;20414;-83
2023/06/09 01:03:26;;;;;;;23.70;8.63;;;12.10;99.90;;;;;;5028666;28;20053;-82
2023/06/09 01:06:03;;;;;;;20.92;7.57;;;12.10;99.90;;;;;;5028437;28;20089;-83
2023/06/09 01:08:52;;;;;;;17.70;6.72;;;12.10;99.90;;;;;;5010754;28;20030;-82
2023/06/09 01:11:28;;;;;;;20.77;7.93;;;12.10;99.90;;;;;;5026407;28;20055;-82
2023/06/09 01:14:03;;;;;;;15.13;6.70;;;12.10;99.90;;;;;;5027350;28;20484;-83
2023/06/09 01:16:48;;;;;;;15.77;7.10;;;12.10;99.90;;;;;;5026944;28;20045;-82
2023/06/09 01:19:32;;;;;;;16.20;7.90;;;12.10;99.90;;;;;;5024218;28;20041;-82
2023/06/09 01:22:33;;;;;;;18.48;7.18;;;12.00;99.90;;;;;;5026164;28;20061;-82
2023/06/09 01:25:22;;;;;;;16.77;6.70;;;12.00;99.90;;;;;;5020666;28;20578;-82
2023/06/09 01:27:50;;;;;;;22.05;8.63;;;12.00;99.90;;;;;;5023428;28;20041;-82
2023/06/09 01:30:18;;;;;;;20.95;7.97;;;12.00;99.90;;;;;;5042282;28;20041;-82
2023/06/09 01:32:45;;;;;;;17.05;7.45;;;12.00;99.90;;;;;;5028915;28;20068;-82
2023/06/09 01:35:11;;;;;;;16.52;7.32;;;12.00;99.90;;;;;;5024220;28;20037;-82
2023/06/09 01:37:38;;;;;;;19.48;7.45;;;11.90;99.90;;;;;;5023732;28;20045;-82
2023/06/09 01:40:05;;;;;;;18.00;8.00;;;11.90;99.90;;;;;;5027761;28;20041;-82
2023/06/09 01:42:31;;;;;;;15.48;6.10;;;11.90;99.90;;;;;;5028617;28;20500;-82
2023/06/09 01:44:56;;;;;;;18.50;6.82;;;11.80;99.90;;;;;;5029287;28;20042;-82
2023/06/09 01:47:22;;;;;;;23.52;7.82;;;11.80;99.90;;;;;;5028705;28;20045;-82
2023/06/09 01:50:11;;;;;;;17.50;7.30;;;11.80;99.90;;;;;;5027128;28;20035;-82
2023/06/09 01:53:04;;;;;;;17.88;6.43;;;11.90;99.90;;;;;;5026421;28;21314;-82
2023/06/09 01:55:42;;;;;;;16.98;6.82;;;11.70;99.90;;;;;;5026686;28;20125;-82
2023/06/09 01:58:44;;;;;;;20.23;8.07;;;11.70;99.90;;;;;;5025688;28;20045;-82
2023/06/09 02:01:12;;;;;;;18.77;7.70;;;11.70;99.90;;;;;;5027466;28;20148;-82
2023/06/09 02:03:40;;;;;;;17.92;7.40;;;11.70;99.90;;;;;;5027095;28;20044;-82
2023/06/09 02:06:07;;;;;;;18.77;7.32;;;11.70;99.90;;;;;;5027940;28;20132;-82
2023/06/09 02:08:32;;;;;;;19.20;6.85;;;11.60;99.90;;;;;;5026657;28;20037;-82
2023/06/09 02:10:58;;;;;;;16.48;7.40;;;11.60;99.90;;;;;;5010426;28;20049;-83
2023/06/09 02:13:24;;;;;;;17.20;7.15;;;11.60;99.90;;;;;;5027107;28;20504;-82
2023/06/09 02:15:49;;;;;;;17.95;7.53;;;11.60;99.90;;;;;;5008464;28;20038;-82
2023/06/09 02:18:17;;;;;;;19.45;7.55;;;11.60;99.90;;;;;;5010733;28;20057;-82
2023/06/09 02:20:43;;;;;;;23.75;7.85;;;11.60;99.90;;;;;;5024607;28;20095;-82
2023/06/09 02:23:10;;;;;;;21.27;7.00;;;11.50;99.90;;;;;;5026287;28;20057;-82
2023/06/09 02:25:36;;;;;;;15.27;7.53;;;11.50;99.90;;;;;;5028367;28;20048;-82
2023/06/09 02:28:03;;;;;;;21.35;8.07;;;11.50;99.90;;;;;;5025350;28;20033;-82
2023/06/09 02:30:29;;;;;;;16.10;7.40;;;11.50;99.90;;;;;;5026907;28;20042;-82
2023/06/09 02:33:01;;;;;;;19.52;7.40;;;11.50;99.90;;;;;;5024766;28;20049;-82
2023/06/09 02:35:29;;;;;;;16.83;7.25;;;11.50;99.90;;;;;;5025947;28;20037;-83
2023/06/09 02:37:55;;;;;;;19.17;8.40;;;11.50;99.90;;;;;;5024379;28;20049;-82
2023/06/09 02:40:21;;;;;;;22.25;7.68;;;11.40;99.90;;;;;;5026067;28;20073;-82
2023/06/09 02:42:47;;;;;;;18.70;7.22;;;11.40;99.90;;;;;;5026191;28;20042;-82
2023/06/09 02:45:13;;;;;;;22.10;7.53;;;11.40;99.90;;;;;;5025939;28;20048;-83
2023/06/09 02:47:40;;;;;;;18.95;8.02;;;11.50;99.90;;;;;;5025543;28;20042;-82
2023/06/09 02:50:07;;;;;;;21.00;8.65;;;11.40;99.90;;;;;;5025003;28;20037;-83
2023/06/09 02:52:34;;;;;;;16.40;7.85;;;11.40;99.90;;;;;;5031110;28;20034;-82
2023/06/09 02:55:00;;;;;;;14.18;7.28;;;11.40;99.90;;;;;;5012631;28;20053;-82
2023/06/09 02:57:27;;;;;;;24.80;8.63;;;11.40;99.90;;;;;;5027770;28;20132;-82
2023/06/09 02:59:53;;;;;;;26.65;9.25;;;11.40;99.90;;;;;;5025644;28;20041;-82
2023/06/09 03:02:19;;;;;;;22.77;9.40;;;11.40;99.90;;;;;;5026699;28;20099;-82
2023/06/09 03:04:45;;;;;;;24.08;9.02;;;11.40;99.90;;;;;;5038641;28;20419;-82
2023/06/09 03:07:13;;;;;;;23.20;9.48;;;11.40;99.90;;;;;;5028964;28;20052;-82
2023/06/09 03:09:41;;;;;;;19.08;7.90;;;11.40;99.90;;;;;;5026778;28;20041;-82
2023/06/09 03:12:07;;;;;;;24.13;9.30;;;11.40;99.90;;;;;;5028910;28;20103;-81
2023/06/09 03:14:34;;;;;;;25.40;9.95;;;11.40;99.90;;;;;;5030357;28;20060;-82
2023/06/09 03:17:00;;;;;;;21.98;8.75;;;11.40;99.90;;;;;;5030687;28;20037;-82
2023/06/09 03:19:26;;;;;;;18.38;9.25;;;11.40;99.90;;;;;;5028716;28;20046;-82
2023/06/09 03:21:53;;;;;;;22.25;9.43;;;11.40;99.90;;;;;;5029019;28;20508;-82
2023/06/09 03:24:19;;;;;;;20.92;8.80;;;11.30;99.90;;;;;;5012454;28;20443;-82
2023/06/09 03:26:49;;;;;;;23.63;9.45;;;11.40;99.90;;;;;;5029592;28;20042;-81
2023/06/09 03:29:15;;;;;;;25.35;10.07;;;11.30;99.90;;;;;;5027900;28;20072;-83
2023/06/09 03:31:41;;;;;;;21.92;8.40;;;11.30;99.90;;;;;;5027759;28;20653;-82
2023/06/09 03:34:06;;;;;;;24.13;9.13;;;11.30;99.90;;;;;;5028698;28;20669;-83
2023/06/09 03:36:35;;;;;;;24.70;10.30;;;11.40;99.90;;;;;;5028510;28;20064;-83
2023/06/09 03:39:01;;;;;;;19.73;8.15;;;11.90;99.90;;;;;;5029231;28;20037;-83
2023/06/09 03:41:27;;;;;;;25.05;9.23;;;11.40;99.90;;;;;;5012354;28;20080;-82
2023/06/09 03:43:52;;;;;;;20.60;8.98;;;11.40;99.90;;;;;;5029149;28;20069;-83
2023/06/09 03:46:18;;;;;;;16.63;8.50;;;11.40;99.90;;;;;;5032453;28;20044;-82
2023/06/09 03:48:43;;;;;;;23.35;8.82;;;11.40;99.90;;;;;;5029394;28;20511;-82
2023/06/09 03:51:09;;;;;;;19.10;8.90;;;11.40;99.90;;;;;;5029508;28;20087;-82
2023/06/09 03:53:35;;;;;;;20.70;8.80;;;11.50;99.90;;;;;;5030206;28;20037;-83
2023/06/09 03:56:01;;;;;;;17.33;8.50;;;11.50;99.90;;;;;;5009605;28;20091;-82
2023/06/09 03:58:26;;;;;;;19.23;10.25;;;11.50;99.90;;;;;;5026169;28;20049;-82
2023/06/09 04:00:52;;;;;;;22.63;9.18;;;11.50;99.90;;;;;;5028331;28;20042;-82
2023/06/09 04:03:20;;;;;;;24.17;9.65;;;11.50;99.90;;;;;;5027280;28;20052;-83
2023/06/09 04:05:46;;;;;;;18.05;8.90;;;11.60;99.90;;;;;;5028943;28;20168;-82
2023/06/09 04:08:12;;;;;;;20.70;9.35;;;11.60;99.90;;;;;;5026992;28;20091;-82
2023/06/09 04:10:40;;;;;;;18.02;8.63;;;11.70;99.90;;;;;;5029317;28;20419;-83
2023/06/09 04:13:05;;;;;;;19.80;8.93;;;11.80;99.90;;;;;;5028116;28;20055;-83
2023/06/09 04:15:31;;;;;;;21.52;8.60;;;11.90;99.90;;;;;;5026758;28;20045;-82
2023/06/09 04:17:57;;;;;;;20.20;8.40;;;12.00;99.90;;;;;;5023499;28;20136;-82
2023/06/09 04:20:24;;;;;;;16.90;7.65;;;12.10;99.90;;;;;;5027775;28;20132;-82
2023/06/09 04:22:51;;;;;;;16.17;8.60;;;12.30;99.90;;;;;;5042773;28;20033;-83
2023/06/09 04:25:19;;;;;;;18.65;7.93;;;12.50;99.90;;;;;;5026198;28;20626;-83
2023/06/09 04:27:48;;;;;;;20.38;7.70;;;12.80;99.90;;;;;;5028136;28;20052;-83
2023/06/09 04:30:13;;;;;;;15.43;7.22;;;13.50;99.90;;;;;;5027504;28;20073;-83
2023/06/09 04:32:39;;;;;;;18.65;7.28;;;14.10;99.90;;;;;;5026444;28;20523;-82
2023/06/09 04:35:05;;;;;;;18.55;7.05;;;14.70;99.90;;;;;;5026689;28;20037;-83
2023/06/09 04:37:32;;;;;;;16.13;7.40;;;15.00;99.90;;;;;;5027820;28;20060;-84
2023/06/09 04:39:58;;;;;;;14.95;6.30;;;15.10;99.90;;;;;;5028265;28;20045;-83
2023/06/09 04:42:24;;;;;;;18.33;6.65;;;15.40;99.90;;;;;;5029316;28;20144;-82
2023/06/09 04:44:50;;;;;;;18.52;7.15;;;15.10;99.90;;;;;;5025680;28;20050;-83
2023/06/09 04:47:17;;;;;;;12.95;6.93;;;15.20;99.90;;;;;;5008137;28;20064;-83
2023/06/09 04:49:49;;;;;;;17.23;6.43;;;16.00;99.90;;;;;;5008448;28;20073;-83
2023/06/09 04:52:20;;;;;;;19.65;6.97;;;16.20;99.90;;;;;;5008514;28;20535;-83
2023/06/09 04:54:45;;;;;;;12.05;5.07;;;16.50;99.90;;;;;;5027392;28;21404;-83
2023/06/09 04:57:11;;;;;;;12.82;6.22;;;17.00;99.90;;;;;;5026696;28;20029;-83
2023/06/09 04:59:40;;;;;;;15.00;5.93;;;17.10;99.90;;;;;;5019067;28;20087;-82
2023/06/09 05:02:07;;;;;;;12.70;5.65;;;17.80;99.90;;;;;;5026938;28;20500;-83
2023/06/09 05:04:33;;;;;;;11.48;5.88;;;18.20;99.90;;;;;;5027690;28;20072;-82
2023/06/09 05:06:59;;;;;;;17.17;6.10;;;18.30;99.90;;;;;;5028645;28;20515;-83
2023/06/09 05:09:24;;;;;;;12.10;6.18;;;18.50;99.90;;;;;;5028047;28;20041;-84
2023/06/09 05:11:50;;;;;;;16.42;5.40;;;18.40;99.90;;;;;;5027049;28;20038;-82
2023/06/09 05:14:15;;;;;;;14.80;7.28;;;17.80;99.90;;;;;;5008767;28;20045;-82
2023/06/09 05:16:45;;;;;;;12.55;6.47;;;17.10;99.90;;;;;;5022581;28;20040;-83
2023/06/09 05:19:11;;;;;;;13.05;5.20;;;16.80;99.90;;;;;;5022461;28;20061;-82
2023/06/09 05:21:37;;;;;;;15.00;5.65;;;17.50;99.90;;;;;;5027093;28;20045;-81
2023/06/09 05:24:03;;;;;;;19.80;7.00;;;18.50;99.90;;;;;;5023072;28;20044;-82
2023/06/09 05:26:30;;;;;;;12.73;6.05;;;19.00;99.90;;;;;;5020751;28;20130;-83
2023/06/09 05:28:55;;;;;;;21.15;6.85;;;19.00;99.90;;;;;;5027347;28;20391;-82
2023/06/09 05:31:26;;;;;;;17.77;6.68;;;18.70;99.90;;;;;;5027881;28;20499;-83
2023/06/09 05:33:51;;;;;;;11.10;5.57;;;18.10;99.90;;;;;;5010092;28;20033;-82
2023/06/09 05:36:17;;;;;;;13.02;5.70;;;17.80;99.90;;;;;;5023075;28;20319;-83
2023/06/09 05:38:43;;;;;;;12.48;6.57;;;17.80;99.90;;;;;;5027095;28;20037;-82
2023/06/09 05:41:08;;;;;;;15.07;6.68;;;17.90;99.90;;;;;;5026287;28;20041;-82
2023/06/09 05:43:34;;;;;;;14.88;5.85;;;17.90;99.90;;;;;;5028643;28;20038;-83
2023/06/09 05:45:59;;;;;;;11.23;5.60;;;18.00;99.90;;;;;;5022255;28;20048;-82
2023/06/09 05:48:25;;;;;;;16.08;6.47;;;18.20;99.90;;;;;;5024533;28;20076;-83
2023/06/09 05:51:00;;;;;;;13.98;6.10;;;18.20;99.90;;;;;;5025358;28;20045;-83
2023/06/09 05:53:25;;;;;;;12.80;5.97;;;18.60;99.90;;;;;;5010084;28;20484;-83
2023/06/09 05:55:53;;;;;;;14.63;6.60;;;18.60;99.90;;;;;;5017978;28;20056;-85
2023/06/09 05:58:19;;;;;;;13.63;6.43;;;18.70;99.90;;;;;;5020967;28;20056;-82
2023/06/09 06:00:44;;;;;;;14.52;5.85;;;18.80;99.90;;;;;;5021440;28;20037;-83
2023/06/09 06:03:11;;;;;;;12.50;6.28;;;18.70;99.90;;;;;;5011994;28;20844;-84
2023/06/09 06:05:40;;;;;;;16.17;6.15;;;18.80;99.90;;;;;;5020541;28;21087;-83
2023/06/09 06:08:06;;;;;;;15.77;5.80;;;18.90;99.90;;;;;;5025460;28;20040;-82
2023/06/09 06:10:32;;;;;;;10.43;5.50;;;19.00;99.90;;;;;;5027337;28;20048;-83
2023/06/09 06:13:01;;;;;;;11.15;5.80;;;19.10;99.90;;;;;;5027244;28;20041;-82
2023/06/09 06:15:26;;;;;;;11.65;5.50;;;19.20;99.90;;;;;;5020140;28;20087;-82
2023/06/09 06:17:52;;;;;;;10.10;4.78;;;19.50;99.90;;;;;;5025504;28;20052;-82
2023/06/09 06:20:17;;;;;;;11.82;4.88;;;19.60;99.90;;;;;;5023780;28;20676;-83
2023/06/09 06:22:43;;;;;;;17.02;5.78;;;19.70;99.90;;;;;;5025827;28;20033;-83
2023/06/09 06:25:13;;;;;;;13.98;5.50;;;19.60;99.90;;;;;;5023677;28;20099;-82
2023/06/09 06:27:39;;;;;;;11.27;5.82;;;19.80;99.90;;;;;;5028754;28;20032;-82
2023/06/09 06:30:06;;;;;;;12.02;6.32;;;20.00;99.90;;;;;;5029900;28;20041;-82
2023/06/09 06:32:32;;;;;;;14.20;5.60;;;20.00;99.90;;;;;;5033642;28;20163;-82
2023/06/09 06:34:57;;;;;;;15.05;5.57;;;20.20;99.90;;;;;;5029972;28;20120;-83
2023/06/09 06:37:23;;;;;;;12.38;5.28;;;20.30;99.90;;;;;;5030619;28;20046;-83
2023/06/09 06:39:48;;;;;;;12.25;5.20;;;20.50;99.90;;;;;;5030203;28;20495;-82
2023/06/09 06:42:14;;;;;;;12.75;5.15;;;20.50;99.90;;;;;;5032581;28;20052;-81
2023/06/09 06:44:39;;;;;;;10.23;5.10;;;20.70;99.90;;;;;;5031313;28;20068;-82
2023/06/09 06:47:05;;;;;;;9.63;5.60;;;20.70;99.90;;;;;;5028357;28;20049;-83
2023/06/09 06:49:31;;;;;;;10.43;5.00;;;20.80;99.90;;;;;;5028984;28;20045;-82
2023/06/09 06:51:57;;;;;;;12.48;5.10;;;20.90;99.90;;;;;;5031637;28;20403;-82
2023/06/09 06:54:22;;;;;;;10.82;4.72;;;21.10;99.90;;;;;;5031619;28;20416;-82
2023/06/09 06:56:47;;;;;;;15.95;6.78;;;21.20;99.90;;;;;;5030738;28;20306;-82
2023/06/09 06:59:13;;;;;;;10.65;5.20;;;21.30;99.90;;;;;;5028704;28;20562;-83
2023/06/09 07:01:40;;;;;;;11.93;5.82;;;21.40;99.90;;;;;;5029272;28;20115;-83
2023/06/09 07:04:06;;;;;;;11.90;5.65;;;21.40;99.90;;;;;;5030239;28;20069;-84
2023/06/09 07:06:32;;;;;;;12.85;5.35;;;21.50;99.90;;;;;;5030295;28;20069;-83
2023/06/09 07:08:58;;;;;;;9.38;4.82;;;21.50;99.90;;;;;;5031352;28;20068;-81
2023/06/09 07:11:24;;;;;;;14.25;5.88;;;21.60;99.90;;;;;;5029448;28;20095;-83
2023/06/09 07:13:56;;;;;;;8.93;4.50;;;21.70;99.90;;;;;;5031903;28;20038;-81
2023/06/09 07:16:25;;;;;;;12.65;5.70;;;21.80;99.90;;;;;;5030850;28;20047;-83
2023/06/09 07:18:51;;;;;;;14.18;5.28;;;21.90;99.90;;;;;;5011575;28;20045;-82
2023/06/09 07:21:17;;;;;;;11.48;5.05;;;22.00;99.90;;;;;;5030303;28;20049;-82
2023/06/09 07:23:42;;;;;;;13.43;5.53;;;21.70;99.90;;;;;;5028517;28;20493;-82
2023/06/09 07:26:08;;;;;;;13.15;5.25;;;21.70;99.90;;;;;;5029629;28;20049;-82
2023/06/09 07:28:33;;;;;;;12.00;5.22;;;21.70;99.90;;;;;;5031158;28;20064;-82
2023/06/09 07:30:59;;;;;;;8.25;4.45;;;21.80;99.90;;;;;;5027855;28;20084;-81
2023/06/09 07:33:24;;;;;;;11.40;4.90;;;21.80;99.90;;;;;;5026273;28;20068;-82
2023/06/09 07:35:52;;;;;;;7.88;5.15;;;21.60;99.90;;;;;;5027411;28;20083;-82
2023/06/09 07:38:18;;;;;;;13.68;4.25;;;21.80;99.90;;;;;;5027090;28;20077;-81
2023/06/09 07:40:43;;;;;;;8.05;4.82;;;21.90;99.90;;;;;;5028926;28;20058;-82
2023/06/09 07:43:09;;;;;;;9.75;4.63;;;21.80;99.90;;;;;;5024590;28;20538;-82
2023/06/09 07:45:35;;;;;;;11.25;4.28;;;22.10;99.90;;;;;;5026278;28;20492;-81
2023/06/09 07:48:00;;;;;;;9.27;5.13;;;22.10;99.90;;;;;;5027387;28;20075;-82
2023/06/09 07:50:26;;;;;;;10.05;5.00;;;22.40;99.90;;;;;;5028655;28;20037;-82
2023/06/09 07:52:51;;;;;;;8.52;4.40;;;22.40;99.90;;;;;;5027086;28;20147;-81
2023/06/09 07:55:17;;;;;;;9.73;5.10;;;22.60;99.90;;;;;;5027171;28;20454;-82
2023/06/09 07:57:43;;;;;;;8.73;5.38;;;22.80;99.90;;;;;;5023401;28;20033;-82
2023/06/09 08:00:10;;;;;;;10.98;5.60;;;22.90;99.90;;;;;;5026707;28;20203;-81
2023/06/09 08:02:40;;;;;;;11.88;5.55;;;22.90;99.90;;;;;;5027891;28;20538;-82
2023/06/09 08:05:06;;;;;;;9.80;4.32;;;22.90;99.90;;;;;;5027935;28;20040;-82
2023/06/09 08:07:32;;;;;;;11.70;4.35;;;23.10;99.90;;;;;;5024583;28;20076;-82
2023/06/09 08:09:57;;;;;;;9.63;4.82;;;22.80;99.90;;;;;;5026476;28;20057;-82
2023/06/09 08:12:23;;;;;;;9.50;5.00;;;22.70;99.90;;;;;;5026815;28;20038;-81
2023/06/09 08:14:48;;;;;;;7.88;4.95;;;22.50;99.90;;;;;;5028214;28;20172;-82
2023/06/09 08:17:14;;;;;;;7.05;4.30;;;22.80;99.90;;;;;;5028127;28;20135;-82
2023/06/09 08:19:39;;;;;;;8.32;4.25;;;22.70;99.90;;;;;;5027988;28;20400;-81
2023/06/09 08:22:05;;;;;;;11.32;5.22;;;22.80;99.90;;;;;;5024542;28;20119;-81
2023/06/09 08:24:30;;;;;;;8.30;4.15;;;23.00;99.90;;;;;;5026506;28;20071;-82
2023/06/09 08:26:58;;;;;;;8.82;4.40;;;23.30;99.90;;;;;;5028219;28;20052;-82
2023/06/09 08:29:23;;;;;;;7.40;4.38;;;23.20;99.90;;;;;;5043999;28;20122;-82
2023/06/09 08:31:49;;;;;;;7.70;4.25;;;23.40;99.90;;;;;;5027737;28;20068;-82
2023/06/09 08:34:14;;;;;;;8.38;4.53;;;23.60;99.90;;;;;;5026300;28;20087;-81
2023/06/09 08:36:41;;;;;;;11.07;4.63;;;23.50;99.90;;;;;;5026175;28;20041;-82
2023/06/09 08:39:06;;;;;;;7.63;4.13;;;23.70;99.90;;;;;;5026197;28;20048;-82
2023/06/09 08:41:37;;;;;;;8.90;5.28;;;23.80;99.90;;;;;;5026666;28;20411;-82
2023/06/09 08:44:04;;;;;;;8.68;4.10;;;23.90;99.90;;;;;;5024658;28;20084;-82
2023/06/09 08:46:33;;;;;;;10.43;4.90;;;23.90;99.90;;;;;;5028082;28;20655;-82
2023/06/09 08:49:00;;;;;;;9.10;4.20;;;23.60;99.90;;;;;;5027233;28;20515;-82
2023/06/09 08:51:26;;;;;;;7.65;4.15;;;23.50;99.90;;;;;;5023477;28;20048;-82
2023/06/09 08:53:53;;;;;;;13.05;4.82;;;23.70;99.90;;;;;;5012295;28;20041;-82
2023/06/09 08:56:21;;;;;;;7.22;4.30;;;23.70;99.90;;;;;;5026446;28;20103;-82
2023/06/09 08:58:48;;;;;;;7.20;4.03;;;23.90;99.90;;;;;;5025630;28;20045;-82
2023/06/09 09:01:15;;;;;;;10.18;4.50;;;23.90;99.90;;;;;;5027224;28;20103;-82
2023/06/09 09:03:41;;;;;;;9.82;4.20;;;23.80;99.90;;;;;;5027997;28;20052;-82
2023/06/09 09:06:06;;;;;;;16.73;4.43;;;23.90;99.90;;;;;;5028058;28;20049;-82
2023/06/09 09:08:32;;;;;;;10.20;4.05;;;24.10;99.90;;;;;;5027487;28;20044;-83
2023/06/09 09:10:57;;;;;;;10.35;4.82;;;24.20;99.90;;;;;;5026303;28;20037;-82
2023/06/09 09:13:30;;;;;;;7.00;4.07;;;24.30;99.90;;;;;;5024829;28;20128;-82
2023/06/09 09:15:58;;;;;;;9.95;3.95;;;24.30;99.90;;;;;;5026958;28;20040;-82
2023/06/09 09:18:23;;;;;;;6.90;3.83;;;24.40;99.90;;;;;;5026799;28;20416;-82
2023/06/09 09:20:49;;;;;;;7.30;4.32;;;24.70;99.90;;;;;;5025840;28;20095;-82
2023/06/09 09:23:15;;;;;;;11.07;4.05;;;24.60;99.90;;;;;;5020528;28;20039;-82
2023/06/09 09:25:41;;;;;;;10.60;3.78;;;24.80;99.90;;;;;;5024505;28;20042;-81
2023/06/09 09:28:12;;;;;;;9.95;3.33;;;24.80;99.90;;;;;;5023962;28;20130;-82
2023/06/09 09:30:54;;;;;;;11.45;3.78;;;25.00;99.90;;;;;;5022509;28;20045;-82
2023/06/09 09:33:22;;;;;;;11.80;4.30;;;24.80;99.90;;;;;;5026168;28;20627;-82
2023/06/09 09:35:50;;;;;;;6.72;3.58;;;24.80;99.90;;;;;;5023626;28;20519;-82
2023/06/09 09:38:27;;;;;;;7.40;3.78;;;24.70;99.90;;;;;;5025101;28;20056;-82
2023/06/09 09:40:54;;;;;;;9.82;3.53;;;25.30;99.90;;;;;;5025431;28;20106;-82
2023/06/09 09:43:23;;;;;;;11.10;4.25;;;25.40;99.90;;;;;;5027208;28;20041;-83
2023/06/09 09:45:54;;;;;;;9.50;4.28;;;25.20;99.90;;;;;;5022140;28;20072;-82
2023/06/09 09:48:22;;;;;;;10.48;3.72;;;25.40;99.90;;;;;;5022613;28;20696;-82
2023/06/09 09:50:51;;;;;;;8.07;3.70;;;25.60;99.90;;;;;;5024325;28;20156;-82
2023/06/09 09:53:16;;;;;;;8.55;3.28;;;25.60;99.90;;;;;;5027283;28;20053;-80
2023/06/09 09:55:45;;;;;;;5.00;3.35;;;25.70;99.90;;;;;;5025555;28;20361;-82
2023/06/09 09:58:11;;;;;;;8.05;3.53;;;25.80;99.90;;;;;;5026059;28;20045;-83
2023/06/09 10:00:40;;;;;;;9.20;3.75;;;25.80;99.90;;;;;;5027540;28;20183;-82
2023/06/09 10:03:18;;;;;;;6.90;3.42;;;26.00;99.90;;;;;;5028574;28;20103;-82
2023/06/09 10:05:49;;;;;;;5.50;3.72;;;26.10;99.70;;;;;;5028630;28;21104;-82
2023/06/09 10:08:27;;;;;;;8.00;3.42;;;25.90;99.10;;;;;;5030211;28;20497;-82
2023/06/09 10:10:59;;;;;;;9.10;3.47;;;26.10;99.40;;;;;;5028993;28;20484;-83
2023/06/09 10:13:27;;;;;;;12.38;4.32;;;26.20;99.30;;;;;;5026713;28;20036;-82
2023/06/09 10:15:58;;;;;;;4.10;3.70;;;26.30;98.70;;;;;;5030582;28;20083;-82
2023/06/09 10:18:24;;;;;;;7.75;3.33;;;26.20;98.40;;;;;;5028251;28;20049;-82
2023/06/09 10:20:51;;;;;;;6.47;3.00;;;26.30;99.30;;;;;;5031335;28;20098;-82
2023/06/09 10:23:17;;;;;;;9.55;3.75;;;26.30;98.60;;;;;;5030200;28;21349;-81
2023/06/09 10:25:48;;;;;;;9.70;3.75;;;26.30;99.10;;;;;;5030964;28;20156;-82
2023/06/09 10:28:16;;;;;;;6.10;3.60;;;26.40;98.30;;;;;;5028595;28;20041;-82
2023/06/09 10:30:42;;;;;;;6.72;3.70;;;26.30;97.80;;;;;;5030572;28;20060;-81
2023/06/09 10:33:16;;;;;;;7.13;3.60;;;26.40;99.10;;;;;;5026221;28;20385;-81
2023/06/09 10:35:44;;;;;;;6.38;3.92;;;26.40;98.10;;;;;;5027950;28;20159;-81
2023/06/09 10:38:28;;;;;;;7.32;3.70;;;26.30;97.80;;;;;;5030220;28;20034;-82
2023/06/09 10:41:05;;;;;;;6.93;3.80;;;26.40;97.70;;;;;;5029057;28;20037;-81
2023/06/09 10:43:50;;;;;;;6.05;2.75;;;26.50;97.40;;;;;;5022498;28;20088;-81
2023/06/09 10:46:16;;;;;;;8.20;3.90;;;26.60;97.50;;;;;;5013522;28;20228;-81
2023/06/09 10:48:43;;;;;;;5.50;3.38;;;26.80;98.30;;;;;;5030467;28;20107;-81
2023/06/09 10:51:27;;;;;;;6.78;3.00;;;26.90;98.10;;;;;;5029352;28;20427;-82
2023/06/09 10:54:12;;;;;;;3.72;2.85;;;26.90;96.30;;;;;;5031382;28;20041;-82
2023/06/09 10:57:13;;;;;;;8.02;3.33;;;27.10;97.80;;;;;;5030707;28;20046;-82
2023/06/09 10:59:39;;;;;;;14.73;3.53;;;27.00;96.10;;;;;;5015051;28;20053;-81
2023/06/09 11:02:05;;;;;;;4.65;3.35;;;27.10;96.50;;;;;;5028843;28;20049;-82
2023/06/09 11:04:43;;;;;;;8.07;3.67;;;26.90;96.20;;;;;;5030392;28;20553;-82
2023/06/09 11:07:11;;;;;;;5.13;2.72;;;27.00;96.40;;;;;;5027605;28;20703;-82
2023/06/09 11:09:37;;;;;;;9.52;3.28;;;27.00;95.90;;;;;;5028984;28;20081;-82
2023/06/09 11:12:03;;;;;;;6.55;3.65;;;26.90;96.50;;;;;;5027737;28;20069;-82
2023/06/09 11:14:44;;;;;;;7.03;3.22;;;27.20;96.00;;;;;;5027993;28;20469;-82
2023/06/09 11:17:25;;;;;;;5.68;3.13;;;27.10;95.70;;;;;;5029045;28;20033;-81
2023/06/09 11:20:21;;;;;;;8.73;3.92;;;27.10;96.10;;;;;;5027389;28;20049;-82
2023/06/09 11:22:48;;;;;;;4.28;2.70;;;27.10;95.80;;;;;;5024631;28;20166;-81
2023/06/09 11:25:19;;;;;;;7.30;3.30;;;27.20;95.60;;;;;;5027944;28;20136;-82
2023/06/09 11:27:46;;;;;;;6.55;3.40;;;27.40;95.60;;;;;;5030135;28;20045;-81
2023/06/09 11:30:20;;;;;;;8.68;3.38;;;27.60;95.80;;;;;;5026806;28;20172;-82
2023/06/09 11:32:53;;;;;;;7.70;3.03;;;27.50;95.60;;;;;;5027413;28;20041;-83
2023/06/09 11:35:28;;;;;;;6.88;3.42;;;27.20;94.10;;;;;;5027378;28;20643;-82
2023/06/09 11:38:03;;;;;;;;;;;27.40;94.80;;;;;;5029261;28;20045;-82
2023/06/09 11:40:31;;;;;;;8.60;3.60;;;27.40;96.00;;;;;;5026647;28;20007;-81
2023/06/09 11:42:58;;;;;;;11.73;3.33;;;27.70;96.10;;;;;;5027094;28;20041;-82
2023/06/09 11:45:24;;;;;;;10.25;3.30;;;27.50;94.40;;;;;;5028827;28;20052;-82
2023/06/09 11:47:56;;;;;;;11.23;5.05;;;27.70;95.40;;;;;;5024837;28;20136;-83
2023/06/09 11:50:23;;;;;;;4.85;2.85;;;27.50;94.70;;;;;;5028266;28;20041;-83
2023/06/09 11:53:05;;;;;;;8.02;3.25;;;27.50;94.80;;;;;;5030101;28;20033;-83
2023/06/09 11:55:31;;;;;;;5.97;3.10;;;27.60;95.10;;;;;;5027429;28;20046;-83
2023/06/09 11:57:57;;;;;;;6.03;3.20;;;27.70;95.60;;;;;;5025756;28;20051;-83
2023/06/09 12:00:28;;;;;;;5.80;3.13;;;27.70;94.30;;;;;;5028123;28;20244;-83
2023/06/09 12:02:55;;;;;;;4.90;3.42;;;27.70;94.40;;;;;;5025352;28;20100;-82
2023/06/09 12:05:23;;;;;;;8.43;3.38;;;27.70;93.70;;;;;;5027676;28;20045;-83
2023/06/09 12:07:50;;;;;;;9.70;2.70;;;27.80;94.50;;;;;;5029432;28;20057;-83
2023/06/09 12:10:17;;;;;;;4.95;3.35;;;27.60;93.60;;;;;;5024389;28;20094;-82
2023/06/09 12:12:44;;;;;;;10.45;3.38;;;27.60;93.90;;;;;;5030274;28;20121;-83
2023/06/09 12:15:11;;;;;;;9.70;3.22;;;27.50;93.80;;;;;;5024935;28;20037;-82
2023/06/09 12:17:37;;;;;;;6.60;3.22;;;27.60;94.30;;;;;;5023697;28;20064;-83
2023/06/09 12:20:30;;;;;;;5.68;3.67;;;27.70;94.10;;;;;;5029015;28;20605;-83
2023/06/09 12:23:12;;;;;;;11.85;3.72;;;27.90;94.50;;;;;;5022835;28;20060;-81
2023/06/09 12:25:45;;;;;;;6.80;3.40;;;27.80;93.90;;;;;;5028415;28;20133;-82
2023/06/09 12:28:14;;;;;;;7.25;3.38;;;27.70;94.00;;;;;;5028067;28;20047;-82
2023/06/09 12:30:47;;;;;;;5.90;3.45;;;27.90;93.80;;;;;;5029149;28;20373;-81
2023/06/09 12:33:15;;;;;;;5.40;3.25;;;27.90;94.00;;;;;;5029275;28;20037;-82
2023/06/09 12:35:48;;;;;;;5.68;3.55;;;28.00;94.30;;;;;;5027062;28;20151;-84
2023/06/09 12:38:15;;;;;;;8.57;3.45;;;27.80;92.90;;;;;;5028304;28;20061;-82
2023/06/09 12:40:52;;;;;;;5.57;3.13;;;28.00;93.70;;;;;;5028271;28;20203;-84
2023/06/09 12:43:23;;;;;;;6.70;3.60;;;28.00;92.60;;;;;;5027736;28;20114;-83
2023/06/09 12:45:52;;;;;;;9.57;2.97;;;27.70;91.90;;;;;;5026635;28;20042;-83
2023/06/09 12:48:20;;;;;;;10.18;3.35;;;27.70;93.20;;;;;;5026916;28;20067;-82